createdAt,value
2016-10-13T00:00:06.774Z,2.94
2016-10-13T00:01:06.766Z,2.84
2016-10-13T00:02:06.756Z,3.03
2016-10-13T00:03:06.741Z,2.47
2016-10-13T00:04:06.726Z,1.99
2016-10-13T00:05:06.711Z,1.8
2016-10-13T00:06:06.695Z,1.7
2016-10-13T00:07:06.687Z,1.04
2016-10-13T00:08:06.991Z,1.23
2016-10-13T00:09:06.658Z,1.14
2016-10-13T00:10:06.665Z,1.23
2016-10-13T00:11:06.651Z,1.42
2016-10-13T00:12:06.827Z,0.95
2016-10-13T00:13:06.604Z,1.14
2016-10-13T00:14:06.604Z,1.23
2016-10-13T00:15:06.586Z,0.57
2016-10-13T00:16:06.890Z,1.23
2016-10-13T00:17:06.564Z,1.42
2016-10-13T00:18:06.545Z,1.8
2016-10-13T00:19:06.578Z,1.8
2016-10-13T00:20:06.516Z,1.99
2016-10-13T00:21:06.506Z,2.08
2016-10-13T00:22:06.695Z,2.66
2016-10-13T00:23:06.476Z,2.75
2016-10-13T00:24:06.473Z,2.18
2016-10-13T00:25:06.457Z,2.47
2016-10-13T00:26:06.442Z,2.27
2016-10-13T00:27:06.433Z,2.37
2016-10-13T00:28:06.412Z,1.99
2016-10-13T00:29:06.404Z,1.61
2016-10-13T00:30:06.391Z,0.95
2016-10-13T00:31:06.375Z,0.95
2016-10-13T00:32:06.368Z,1.14
2016-10-13T00:33:06.348Z,1.8
2016-10-13T00:34:06.341Z,2.37
2016-10-13T00:35:06.330Z,3.13
2016-10-13T00:36:06.314Z,3.03
2016-10-13T00:37:06.301Z,2.94
2016-10-13T00:38:06.302Z,2.47
2016-10-13T00:39:06.277Z,2.94
2016-10-13T00:40:06.271Z,3.22
2016-10-13T00:41:06.253Z,3.6
2016-10-13T00:42:06.239Z,3.7
2016-10-13T00:43:06.229Z,3.6
2016-10-13T00:44:06.210Z,3.6
2016-10-13T00:45:06.203Z,3.89
2016-10-13T00:46:06.183Z,4.17
2016-10-13T00:47:06.171Z,5.12
2016-10-13T00:48:06.164Z,5.4
2016-10-13T00:49:06.144Z,5.78
2016-10-13T00:50:06.140Z,6.26
2016-10-13T00:51:06.121Z,6.07
2016-10-13T00:52:06.103Z,6.73
2016-10-13T00:53:06.105Z,6.35
2016-10-13T00:54:06.082Z,6.16
2016-10-13T00:55:06.069Z,6.07
2016-10-13T00:56:06.053Z,5.69
2016-10-13T00:57:06.044Z,5.4
2016-10-13T00:58:06.030Z,5.4
2016-10-13T00:59:06.017Z,5.12
2016-10-13T01:00:06.016Z,5.12
2016-10-13T01:01:05.991Z,5.5
2016-10-13T01:02:05.979Z,5.31
2016-10-13T01:03:05.964Z,5.69
2016-10-13T01:04:05.957Z,6.45
2016-10-13T01:05:06.012Z,6.73
2016-10-13T01:06:05.930Z,6.35
2016-10-13T01:07:05.917Z,6.26
2016-10-13T01:08:05.900Z,6.54
2016-10-13T01:09:05.895Z,7.11
2016-10-13T01:10:05.878Z,7.01
2016-10-13T01:11:05.862Z,7.01
2016-10-13T01:12:05.848Z,6.92
2016-10-13T01:13:05.840Z,6.54
2016-10-13T01:14:05.846Z,6.26
2016-10-13T01:15:05.812Z,5.88
2016-10-13T01:16:05.801Z,5.69
2016-10-13T01:17:05.795Z,5.59
2016-10-13T01:18:05.773Z,5.5
2016-10-13T01:19:05.766Z,5.4
2016-10-13T01:20:05.756Z,5.12
2016-10-13T01:21:05.756Z,5.5
2016-10-13T01:22:05.725Z,5.59
2016-10-13T01:23:05.711Z,5.88
2016-10-13T01:24:05.703Z,6.07
2016-10-13T01:25:05.687Z,6.16
2016-10-13T01:26:05.679Z,6.54
2016-10-13T01:27:05.667Z,6.92
2016-10-13T01:28:05.658Z,7.97
2016-10-13T01:29:05.642Z,7.4
2016-10-13T01:30:05.625Z,6.92
2016-10-13T01:31:05.619Z,6.82
2016-10-13T01:32:05.599Z,7.49
2016-10-13T01:33:05.590Z,7.97
2016-10-13T01:34:05.574Z,8.63
2016-10-13T01:35:05.567Z,8.82
2016-10-13T01:36:05.557Z,8.63
2016-10-13T01:37:05.535Z,9.01
2016-10-13T01:38:05.525Z,9.29
2016-10-13T01:39:05.509Z,8.44
2016-10-13T01:40:05.557Z,7.68
2016-10-13T01:41:05.514Z,7.49
2016-10-13T01:42:05.495Z,6.82
2016-10-13T01:43:05.455Z,6.82
2016-10-13T01:44:05.446Z,7.68
2016-10-13T01:45:05.438Z,8.63
2016-10-13T01:46:05.421Z,9.95
2016-10-13T01:47:05.411Z,9.95
2016-10-13T01:48:05.396Z,9.1
2016-10-13T01:49:05.385Z,8.72
2016-10-13T01:50:05.376Z,8.34
2016-10-13T01:51:05.370Z,7.87
2016-10-13T01:52:05.347Z,8.06
2016-10-13T01:53:05.342Z,8.15
2016-10-13T01:54:05.320Z,8.53
2016-10-13T01:55:05.310Z,9.39
2016-10-13T01:56:05.299Z,8.82
2016-10-13T01:57:05.292Z,8.15
2016-10-13T01:58:05.270Z,7.78
2016-10-13T01:59:05.253Z,7.59
2016-10-13T02:00:05.244Z,7.2
2016-10-13T02:01:05.234Z,6.54
2016-10-13T02:02:05.244Z,6.26
2016-10-13T02:03:05.205Z,5.31
2016-10-13T02:04:05.198Z,6.45
2016-10-13T02:05:05.232Z,6.92
2016-10-13T02:06:05.166Z,7.11
2016-10-13T02:07:05.168Z,6.92
2016-10-13T02:08:05.144Z,6.45
2016-10-13T02:09:05.131Z,6.07
2016-10-13T02:10:05.219Z,6.73
2016-10-13T02:11:05.104Z,6.92
2016-10-13T02:12:05.094Z,7.2
2016-10-13T02:13:05.083Z,7.59
2016-10-13T02:14:05.069Z,7.3
2016-10-13T02:15:05.055Z,7.01
2016-10-13T02:16:05.045Z,7.78
2016-10-13T02:17:05.028Z,7.49
2016-10-13T02:18:05.019Z,7.3
2016-10-13T02:19:05.005Z,7.11
2016-10-13T02:20:04.991Z,7.01
2016-10-13T02:21:04.984Z,7.3
2016-10-13T02:22:04.968Z,7.59
2016-10-13T02:23:04.953Z,6.92
2016-10-13T02:24:04.941Z,6.73
2016-10-13T02:25:04.978Z,6.63
2016-10-13T02:26:04.921Z,6.92
2016-10-13T02:27:04.911Z,6.63
2016-10-13T02:28:04.944Z,6.45
2016-10-13T02:29:04.882Z,5.97
2016-10-13T02:30:04.868Z,5.69
2016-10-13T02:31:04.857Z,6.26
2016-10-13T02:32:04.838Z,5.78
2016-10-13T02:33:04.843Z,6.16
2016-10-13T02:34:04.814Z,6.16
2016-10-13T02:35:04.868Z,6.63
2016-10-13T02:36:04.792Z,6.82
2016-10-13T02:37:04.778Z,6.82
2016-10-13T02:38:04.775Z,6.54
2016-10-13T02:39:04.751Z,6.26
2016-10-13T02:40:04.739Z,6.26
2016-10-13T02:41:04.727Z,6.26
2016-10-13T02:42:04.713Z,6.54
2016-10-13T02:43:04.705Z,6.16
2016-10-13T02:44:04.690Z,5.31
2016-10-13T02:45:04.673Z,5.02
2016-10-13T02:46:04.660Z,5.88
2016-10-13T02:47:04.657Z,5.59
2016-10-13T02:48:04.667Z,5.4
2016-10-13T02:49:04.655Z,5.12
2016-10-13T02:50:04.614Z,4.74
2016-10-13T02:51:04.598Z,4.27
2016-10-13T02:52:04.593Z,4.08
2016-10-13T02:53:04.574Z,4.08
2016-10-13T02:54:04.573Z,4.17
2016-10-13T02:55:04.556Z,4.17
2016-10-13T02:56:04.538Z,4.17
2016-10-13T02:57:04.528Z,4.74
2016-10-13T02:58:04.511Z,4.74
2016-10-13T02:59:04.512Z,4.74
2016-10-13T03:00:04.483Z,4.27
2016-10-13T03:01:04.473Z,4.17
2016-10-13T03:02:04.461Z,3.98
2016-10-13T03:03:04.446Z,3.89
2016-10-13T03:04:04.442Z,3.79
2016-10-13T03:05:04.426Z,4.17
2016-10-13T03:06:04.413Z,3.7
2016-10-13T03:07:04.396Z,3.5
2016-10-13T03:08:04.385Z,3.31
2016-10-13T03:09:04.377Z,3.22
2016-10-13T03:10:04.359Z,3.22
2016-10-13T03:11:04.356Z,3.98
2016-10-13T03:12:04.336Z,4.17
2016-10-13T03:13:04.322Z,4.08
2016-10-13T03:14:04.312Z,4.46
2016-10-13T03:15:04.350Z,4.46
2016-10-13T03:16:04.286Z,4.17
2016-10-13T03:17:04.271Z,3.89
2016-10-13T03:18:04.269Z,4.36
2016-10-13T03:19:04.246Z,4.74
2016-10-13T03:20:04.250Z,4.08
2016-10-13T03:21:04.223Z,4.64
2016-10-13T03:22:04.215Z,4.17
2016-10-13T03:23:04.200Z,3.89
2016-10-13T03:24:04.185Z,3.22
2016-10-13T03:25:04.225Z,3.22
2016-10-13T03:26:04.170Z,2.94
2016-10-13T03:27:04.149Z,2.84
2016-10-13T03:28:04.134Z,2.75
2016-10-13T03:29:04.119Z,3.22
2016-10-13T03:30:04.119Z,2.94
2016-10-13T03:31:04.098Z,3.7
2016-10-13T03:32:04.083Z,3.98
2016-10-13T03:33:04.075Z,4.08
2016-10-13T03:34:04.376Z,4.17
2016-10-13T03:35:04.050Z,3.7
2016-10-13T03:36:04.039Z,3.79
2016-10-13T03:37:04.022Z,3.31
2016-10-13T03:38:04.007Z,3.13
2016-10-13T03:39:04.005Z,2.94
2016-10-13T03:40:03.985Z,2.75
2016-10-13T03:41:03.975Z,2.37
2016-10-13T03:42:03.961Z,2.08
2016-10-13T03:43:03.954Z,2.56
2016-10-13T03:44:03.937Z,2.84
2016-10-13T03:45:03.921Z,3.03
2016-10-13T03:46:03.921Z,2.75
2016-10-13T03:47:03.897Z,2.84
2016-10-13T03:48:03.890Z,3.22
2016-10-13T03:49:03.877Z,3.31
2016-10-13T03:50:03.868Z,3.03
2016-10-13T03:51:03.854Z,2.47
2016-10-13T03:52:03.832Z,2.27
2016-10-13T03:53:03.827Z,2.18
2016-10-13T03:54:03.808Z,2.27
2016-10-13T03:55:03.798Z,1.89
2016-10-13T03:56:03.788Z,1.89
2016-10-13T03:57:03.782Z,1.99
2016-10-13T03:58:03.757Z,1.61
2016-10-13T03:59:03.745Z,1.7
2016-10-13T04:00:03.735Z,1.99
2016-10-13T04:01:03.722Z,2.37
2016-10-13T04:02:03.714Z,2.37
2016-10-13T04:03:03.695Z,1.89
2016-10-13T04:04:04.004Z,1.51
2016-10-13T04:05:03.674Z,0.85
2016-10-13T04:06:03.999Z,0.57
2016-10-13T04:07:03.646Z,0.28
2016-10-13T04:08:03.635Z,0.28
2016-10-13T04:09:03.621Z,0.09
2016-10-13T04:10:03.613Z,0
2016-10-13T04:11:03.603Z,0.19
2016-10-13T04:12:03.581Z,0.95
2016-10-13T04:13:03.576Z,1.23
2016-10-13T04:14:03.556Z,1.7
2016-10-13T04:15:03.548Z,1.7
2016-10-13T04:16:03.533Z,1.42
2016-10-13T04:17:03.525Z,1.32
2016-10-13T04:18:03.512Z,0.85
2016-10-13T04:19:03.501Z,0.38
2016-10-13T04:20:03.482Z,0.19
2016-10-13T04:21:03.469Z,0.28
2016-10-13T04:22:03.464Z,0.28
2016-10-13T04:23:03.447Z,0.38
2016-10-13T04:24:03.435Z,0.47
2016-10-13T04:25:03.422Z,0.19
2016-10-13T04:26:03.458Z,0.38
2016-10-13T04:27:03.397Z,0.28
2016-10-13T04:28:03.401Z,0.19
2016-10-13T04:29:03.367Z,0.57
2016-10-13T04:30:03.359Z,0.57
2016-10-13T04:31:03.350Z,0.28
2016-10-13T04:32:03.336Z,0.19
2016-10-13T04:33:03.322Z,0.19
2016-10-13T04:34:03.313Z,0.38
2016-10-13T04:35:03.613Z,0.38
2016-10-13T04:36:03.336Z,0.47
2016-10-13T04:37:03.266Z,0.38
2016-10-13T04:38:03.257Z,0.28
2016-10-13T04:39:03.257Z,0.09
2016-10-13T04:40:03.237Z,0.19
2016-10-13T04:41:03.219Z,0.85
2016-10-13T04:42:03.209Z,0.76
2016-10-13T04:43:03.205Z,0.95
2016-10-13T04:44:03.185Z,0.76
2016-10-13T04:45:03.498Z,1.14
2016-10-13T04:46:03.157Z,1.14
2016-10-13T04:47:03.160Z,1.04
2016-10-13T04:48:03.136Z,0.85
2016-10-13T04:49:03.123Z,0.85
2016-10-13T04:50:03.122Z,0.85
2016-10-13T04:51:03.412Z,1.32
2016-10-13T04:52:03.094Z,1.51
2016-10-13T04:53:03.079Z,1.61
2016-10-13T04:54:03.086Z,1.7
2016-10-13T04:55:03.055Z,1.7
2016-10-13T04:56:03.036Z,1.51
2016-10-13T04:57:03.361Z,1.99
2016-10-13T04:58:03.009Z,2.18
2016-10-13T04:59:02.995Z,2.27
2016-10-13T05:00:02.990Z,2.47
2016-10-13T05:01:02.981Z,2.84
2016-10-13T05:02:02.960Z,2.75
2016-10-13T05:03:02.955Z,2.75
2016-10-13T05:04:02.944Z,2.66
2016-10-13T05:05:02.921Z,3.03
2016-10-13T05:06:02.914Z,2.37
2016-10-13T05:07:02.898Z,1.99
2016-10-13T05:08:02.897Z,2.47
2016-10-13T05:09:02.877Z,2.08
2016-10-13T05:10:02.864Z,2.75
2016-10-13T05:11:02.850Z,2.66
2016-10-13T05:12:02.837Z,2.84
2016-10-13T05:13:02.825Z,3.22
2016-10-13T05:14:02.817Z,3.41
2016-10-13T05:15:02.803Z,2.84
2016-10-13T05:16:02.789Z,2.94
2016-10-13T05:17:02.774Z,3.79
2016-10-13T05:18:02.767Z,3.89
2016-10-13T05:19:02.754Z,3.22
2016-10-13T05:20:02.737Z,2.94
2016-10-13T05:21:02.727Z,2.84
2016-10-13T05:22:02.717Z,2.56
2016-10-13T05:23:02.704Z,1.8
2016-10-13T05:24:02.690Z,1.61
2016-10-13T05:25:02.684Z,1.32
2016-10-13T05:26:02.667Z,1.14
2016-10-13T05:27:02.658Z,0.85
2016-10-13T05:28:02.848Z,0.76
2016-10-13T05:29:02.631Z,0.76
2016-10-13T05:30:02.621Z,0.28
2016-10-13T05:31:02.604Z,0.66
2016-10-13T05:32:02.593Z,0.85
2016-10-13T05:33:02.596Z,1.42
2016-10-13T05:34:02.572Z,1.04
2016-10-13T05:35:02.553Z,1.42
2016-10-13T05:36:02.544Z,1.7
2016-10-13T05:37:02.530Z,1.8
2016-10-13T05:38:02.517Z,1.7
2016-10-13T05:39:02.506Z,1.8
2016-10-13T05:40:02.500Z,2.66
2016-10-13T05:41:02.478Z,3.13
2016-10-13T05:42:02.466Z,3.41
2016-10-13T05:43:02.461Z,3.31
2016-10-13T05:44:02.443Z,3.41
2016-10-13T05:45:02.435Z,3.79
2016-10-13T05:46:02.420Z,3.5
2016-10-13T05:47:02.403Z,3.41
2016-10-13T05:48:02.393Z,3.7
2016-10-13T05:49:02.383Z,4.08
2016-10-13T05:50:02.374Z,4.46
2016-10-13T05:51:02.363Z,4.93
2016-10-13T05:52:02.466Z,5.12
2016-10-13T05:53:02.331Z,6.07
2016-10-13T05:54:02.347Z,6.26
2016-10-13T05:55:02.303Z,6.63
2016-10-13T05:56:02.295Z,6.73
2016-10-13T05:57:02.282Z,6.73
2016-10-13T05:58:02.264Z,6.45
2016-10-13T05:59:02.259Z,6.16
2016-10-13T06:00:02.244Z,5.78
2016-10-13T06:01:02.233Z,5.78
2016-10-13T06:02:02.221Z,6.63
2016-10-13T06:03:02.201Z,7.2
2016-10-13T06:04:02.406Z,7.4
2016-10-13T06:05:02.188Z,7.68
2016-10-13T06:06:02.170Z,8.06
2016-10-13T06:07:02.481Z,8.34
2016-10-13T06:08:02.146Z,8.34
2016-10-13T06:09:02.132Z,8.44
2016-10-13T06:10:02.132Z,8.06
2016-10-13T06:11:02.105Z,7.59
2016-10-13T06:12:02.097Z,7.59
2016-10-13T06:13:02.080Z,7.97
2016-10-13T06:14:02.067Z,8.44
2016-10-13T06:15:02.056Z,8.63
2016-10-13T06:16:02.047Z,9.11
2016-10-13T06:17:02.040Z,8.73
2016-10-13T06:18:02.024Z,7.87
2016-10-13T06:19:02.005Z,7.5
2016-10-13T06:20:02.005Z,6.92
2016-10-13T06:21:01.985Z,6.54
2016-10-13T06:22:01.966Z,6.26
2016-10-13T06:23:01.966Z,5.69
2016-10-13T06:24:01.950Z,5.69
2016-10-13T06:25:01.936Z,6.45
2016-10-13T06:26:01.934Z,7.21
2016-10-13T06:27:01.908Z,8.82
2016-10-13T06:28:01.906Z,9.01
2016-10-13T06:29:01.893Z,9.86
2016-10-13T06:30:01.874Z,11.38
2016-10-13T06:31:01.872Z,13.09
2016-10-13T06:32:01.845Z,14.32
2016-10-13T06:33:01.838Z,15.56
2016-10-13T06:34:01.828Z,15.37
2016-10-13T06:35:01.809Z,16.41
2016-10-13T06:36:02.004Z,16.89
2016-10-13T06:37:01.785Z,16.79
2016-10-13T06:38:01.777Z,16.41
2016-10-13T06:39:01.763Z,15.37
2016-10-13T06:40:01.749Z,15.37
2016-10-13T06:41:01.739Z,15.75
2016-10-13T06:42:01.725Z,16.32
2016-10-13T06:43:01.712Z,16.51
2016-10-13T06:44:01.698Z,15.47
2016-10-13T06:45:01.690Z,15.37
2016-10-13T06:46:01.699Z,14.62
2016-10-13T06:47:01.667Z,15
2016-10-13T06:48:01.651Z,15.19
2016-10-13T06:49:01.646Z,17.27
2016-10-13T06:50:01.634Z,21.74
2016-10-13T06:51:01.617Z,23.83
2016-10-13T06:52:01.607Z,24.87
2016-10-13T06:53:01.604Z,28.4
2016-10-13T06:54:01.581Z,26.78
2016-10-13T06:55:01.571Z,28.11
2016-10-13T06:56:01.556Z,28.21
2016-10-13T06:57:01.546Z,37.52
2016-10-13T06:58:01.539Z,45.21
2016-10-13T06:59:01.524Z,42.55
2016-10-13T07:00:01.519Z,39.04
2016-10-13T07:01:01.501Z,39.98
2016-10-13T07:02:01.491Z,41.31
2016-10-13T07:03:01.477Z,44.17
2016-10-13T07:04:01.475Z,47.68
2016-10-13T07:05:01.453Z,47.39
2016-10-13T07:06:01.454Z,47.39
2016-10-13T07:07:01.432Z,47.68
2016-10-13T07:08:01.420Z,53.28
2016-10-13T07:09:01.658Z,56.99
2016-10-13T07:10:01.475Z,51.1
2016-10-13T07:11:01.396Z,50.91
2016-10-13T07:12:01.375Z,50.53
2016-10-13T07:13:01.366Z,50.51
2016-10-13T07:14:01.353Z,50.91
2016-10-13T07:15:01.363Z,49.96
2016-10-13T07:16:01.492Z,49.49
2016-10-13T07:17:01.492Z,49.18
2016-10-13T07:18:01.608Z,48.82
2016-10-13T07:19:01.459Z,48.72
2016-10-13T07:20:01.496Z,46.99
2016-10-13T07:21:01.483Z,48.44
2016-10-13T07:22:01.481Z,50.24
2016-10-13T07:23:01.463Z,49.87
2016-10-13T07:24:01.449Z,49.29
2016-10-13T07:25:01.314Z,46.83
2016-10-13T07:26:01.302Z,48.63
2016-10-13T07:27:01.300Z,50.34
2016-10-13T07:28:01.305Z,51.1
2016-10-13T07:29:01.295Z,51.86
2016-10-13T07:30:01.284Z,53.57
2016-10-13T07:31:01.283Z,54.24
2016-10-13T07:32:01.157Z,53.19
2016-10-13T07:33:01.142Z,55.47
2016-10-13T07:34:01.133Z,58.41
2016-10-13T07:35:01.121Z,59.46
2016-10-13T07:36:01.148Z,58.41
2016-10-13T07:37:01.097Z,58.8
2016-10-13T07:38:01.108Z,56.32
2016-10-13T07:39:01.081Z,55.37
2016-10-13T07:40:01.058Z,54.05
2016-10-13T07:41:01.050Z,56.61
2016-10-13T07:42:01.037Z,57.37
2016-10-13T07:43:01.035Z,57.65
2016-10-13T07:44:01.017Z,58.51
2016-10-13T07:45:01.004Z,60.88
2016-10-13T07:48:00.974Z,60.88
2016-10-13T07:49:00.971Z,62.02
2016-10-13T07:50:00.949Z,59.74
2016-10-13T07:51:00.935Z,58.51
2016-10-13T07:52:00.922Z,56.42
2016-10-13T07:53:00.919Z,57.56
2016-10-13T07:54:00.900Z,58.32
2016-10-13T07:55:00.893Z,56.89
2016-10-13T07:56:00.881Z,55.57
2016-10-13T07:57:00.864Z,56.99
2016-10-13T07:58:00.853Z,59.65
2016-10-13T07:59:00.842Z,64.87
2016-10-13T08:00:00.840Z,64.69
2016-10-13T08:01:00.817Z,63.73
2016-10-13T08:02:00.823Z,64.4
2016-10-13T08:03:00.798Z,64.4
2016-10-13T08:04:00.792Z,64.97
2016-10-13T08:05:00.782Z,62.88
2016-10-13T08:06:00.762Z,64.49
2016-10-13T08:07:00.757Z,69.05
2016-10-13T08:08:00.743Z,69.37
2016-10-13T08:09:00.730Z,71.14
2016-10-13T08:10:00.718Z,70.51
2016-10-13T08:11:00.710Z,70.89
2016-10-13T08:12:00.701Z,72.13
2016-10-13T08:13:00.697Z,72.13
2016-10-13T08:14:00.676Z,71.18
2016-10-13T08:15:00.666Z,69.56
2016-10-13T08:16:00.656Z,69.18
2016-10-13T08:17:00.644Z,69.27
2016-10-13T08:18:00.634Z,68.52
2016-10-13T08:19:00.631Z,70.23
2016-10-13T08:20:00.612Z,69.56
2016-10-13T08:21:00.603Z,70.89
2016-10-13T08:22:00.590Z,73.18
2016-10-13T08:23:00.582Z,73.93
2016-10-13T08:24:00.571Z,74.51
2016-10-13T08:25:00.564Z,74.69
2016-10-13T08:26:00.553Z,74.41
2016-10-13T08:27:00.538Z,74.03
2016-10-13T08:28:00.525Z,74.79
2016-10-13T08:29:00.521Z,75.55
2016-10-13T08:30:00.521Z,74.98
2016-10-13T08:31:00.495Z,74.03
2016-10-13T08:32:00.483Z,74.98
2016-10-13T08:33:00.476Z,72.85
2016-10-13T08:34:00.467Z,70.95
2016-10-13T08:35:00.459Z,68.77
2016-10-13T09:10:44.781Z,66.2
2016-10-13T09:11:44.782Z,65.06
2016-10-13T09:12:44.759Z,61.36
2016-10-13T09:13:44.753Z,59.84
2016-10-13T09:14:44.761Z,60.31
2016-10-13T09:15:44.723Z,61.36
2016-10-13T09:16:44.724Z,62.59
2016-10-13T09:17:44.706Z,63.64
2016-10-13T09:18:44.703Z,61.83
2016-10-13T09:19:44.698Z,62.59
2016-10-13T09:20:44.670Z,60.88
2016-10-13T09:21:44.667Z,59.17
2016-10-13T09:22:44.653Z,56.42
2016-10-13T09:23:44.644Z,58.22
2016-10-13T09:24:44.633Z,60.03
2016-10-13T09:25:44.628Z,60.44
2016-10-13T09:26:44.605Z,61.68
2016-10-13T09:27:44.599Z,66.42
2016-10-13T09:28:44.583Z,65.57
2016-10-13T09:29:44.575Z,67.09
2016-10-13T09:30:44.563Z,67.38
2016-10-13T09:31:44.555Z,66.14
2016-10-13T09:32:44.548Z,69.94
2016-10-13T09:33:44.529Z,71.46
2016-10-13T09:34:44.517Z,73.08
2016-10-13T09:35:44.507Z,74.12
2016-10-13T09:36:44.504Z,72.6
2016-10-13T09:37:44.490Z,75.55
2016-10-13T09:38:44.476Z,80.3
2016-10-13T09:39:44.472Z,79.73
2016-10-13T09:40:44.457Z,81.06
2016-10-13T09:41:44.447Z,87.52
2016-10-13T09:42:44.443Z,85.15
2016-10-13T09:43:44.423Z,85.24
2016-10-13T09:44:44.416Z,86.67
2016-10-13T09:45:44.400Z,85.15
2016-10-13T09:46:44.397Z,82.96
2016-10-13T09:47:44.381Z,87.14
2016-10-13T09:48:44.380Z,86.38
2016-10-13T09:49:44.361Z,86.19
2016-10-13T09:50:44.351Z,86.29
2016-10-13T09:51:44.348Z,87.34
2016-10-13T09:52:44.331Z,87.62
2016-10-13T09:53:44.318Z,86.47
2016-10-13T09:54:44.305Z,84.39
2016-10-13T09:55:44.293Z,84.67
2016-10-13T09:56:44.291Z,85.43
2016-10-13T09:57:44.364Z,85.05
2016-10-13T09:58:44.263Z,83.25
2016-10-13T09:59:44.256Z,79.54
2016-10-13T10:00:44.247Z,78.11
2016-10-13T10:01:44.236Z,79.92
2016-10-13T10:02:44.222Z,79.83
2016-10-13T10:03:44.212Z,79.35
2016-10-13T10:04:44.202Z,79.54
2016-10-13T10:05:44.197Z,86.86
2016-10-13T10:06:44.189Z,85.53
2016-10-13T10:07:44.181Z,83.34
2016-10-13T10:08:44.161Z,81.44
2016-10-13T10:09:44.154Z,80.77
2016-10-13T10:10:44.160Z,83.34
2016-10-13T10:11:44.686Z,84.86
2016-10-13T10:12:44.123Z,83.53
2016-10-13T10:13:44.111Z,81.63
2016-10-13T10:14:44.098Z,79.92
2016-10-13T10:15:44.091Z,77.92
2016-10-13T10:16:44.079Z,76.59
2016-10-13T10:17:44.073Z,77.36
2016-10-13T10:18:44.056Z,80.87
2016-10-13T10:19:44.054Z,78.21
2016-10-13T10:20:44.033Z,77.64
2016-10-13T10:21:44.030Z,78.4
2016-10-13T10:22:44.012Z,77.26
2016-10-13T10:23:44.004Z,81.92
2016-10-13T10:24:43.995Z,81.92
2016-10-13T10:25:43.984Z,78.59
2016-10-13T10:26:43.982Z,78.11
2016-10-13T10:27:43.958Z,79.54
2016-10-13T10:28:43.952Z,79.16
2016-10-13T10:29:43.941Z,79.25
2016-10-13T10:30:43.928Z,78.78
2016-10-13T10:31:43.917Z,80.02
2016-10-13T10:32:43.907Z,83.06
2016-10-13T10:33:43.898Z,80.3
2016-10-13T10:34:43.893Z,79.83
2016-10-13T10:35:43.882Z,76.21
2016-10-13T10:36:43.875Z,75.64
2016-10-13T10:37:43.864Z,83.44
2016-10-13T10:38:43.845Z,81.73
2016-10-13T10:39:43.835Z,81.06
2016-10-13T10:40:43.831Z,81.06
2016-10-13T10:41:43.817Z,84.48
2016-10-13T10:42:43.800Z,79.68
2016-10-13T10:43:43.794Z,86.33
2016-10-13T10:44:43.786Z,87.76
2016-10-13T10:45:43.773Z,87.28
2016-10-13T10:46:43.765Z,85.19
2016-10-13T10:47:43.757Z,83.76
2016-10-13T10:48:43.741Z,84.43
2016-10-13T10:49:43.737Z,85.57
2016-10-13T10:50:43.725Z,92.22
2016-10-13T10:51:43.712Z,95.17
2016-10-13T10:52:43.708Z,91.7
2016-10-13T10:53:43.696Z,90.94
2016-10-13T10:54:43.682Z,99.5
2016-10-13T10:55:43.672Z,97.22
2016-10-13T10:56:43.673Z,99.99
2016-10-13T10:57:43.650Z,99.99
2016-10-13T10:58:43.653Z,99.99
2016-10-13T10:59:43.638Z,99.99
2016-10-13T11:00:43.623Z,99.99
2016-10-13T11:01:43.613Z,99.88
2016-10-13T11:02:43.611Z,99.79
2016-10-13T11:03:43.596Z,97.98
2016-10-13T11:04:43.589Z,99.12
2016-10-13T11:05:43.576Z,99.99
2016-10-13T11:06:43.567Z,98.41
2016-10-13T11:07:43.555Z,98.03
2016-10-13T11:08:43.554Z,98.93
2016-10-13T11:09:43.538Z,98.74
2016-10-13T11:10:43.538Z,99.99
2016-10-13T11:11:43.517Z,99.99
2016-10-13T11:12:43.510Z,99.99
2016-10-13T11:13:43.495Z,98.46
2016-10-13T11:14:43.494Z,99.99
2016-10-13T11:15:43.480Z,99.99
2016-10-13T11:16:43.478Z,99.99
2016-10-13T11:17:43.458Z,99.99
2016-10-13T11:18:43.448Z,99.99
2016-10-13T11:19:43.441Z,97.69
2016-10-13T11:20:43.428Z,97.6
2016-10-13T11:21:43.423Z,99.31
2016-10-13T11:22:43.429Z,98.93
2016-10-13T11:23:43.403Z,99.02
2016-10-13T11:24:43.398Z,99.36
2016-10-13T11:25:43.427Z,99.99
2016-10-13T11:26:43.376Z,99.99
2016-10-13T11:27:43.367Z,99.99
2016-10-13T11:28:43.358Z,99.99
2016-10-13T11:29:43.350Z,99.99
2016-10-13T11:30:43.343Z,99.99
2016-10-13T11:31:43.334Z,99.99
2016-10-13T11:32:43.321Z,99.99
2016-10-13T11:33:43.321Z,99.99
2016-10-13T11:34:43.304Z,99.99
2016-10-13T11:35:43.302Z,99.99
2016-10-13T11:36:43.284Z,99.99
2016-10-13T11:37:43.285Z,99.99
2016-10-13T11:38:43.274Z,99.99
2016-10-13T11:39:43.264Z,99.99
2016-10-13T11:40:43.252Z,99.99
2016-10-13T11:41:43.242Z,99.99
2016-10-13T11:42:43.238Z,99.99
2016-10-13T11:43:43.223Z,99.99
2016-10-13T11:44:43.261Z,99.99
2016-10-13T11:45:43.208Z,99.99
2016-10-13T11:46:43.200Z,99.99
2016-10-13T11:47:43.188Z,99.99
2016-10-13T11:48:43.186Z,99.99
2016-10-13T11:49:43.173Z,99.99
2016-10-13T11:50:43.166Z,99.99
2016-10-13T11:51:43.154Z,99.99
2016-10-13T11:52:43.145Z,99.99
2016-10-13T11:53:43.134Z,99.99
2016-10-13T11:54:43.138Z,99.99
2016-10-13T11:55:43.115Z,99.99
2016-10-13T11:56:43.112Z,99.99
2016-10-13T11:57:43.100Z,99.99
2016-10-13T11:58:43.089Z,99.99
2016-10-13T11:59:43.084Z,99.99
2016-10-13T12:00:43.074Z,99.99
2016-10-13T12:01:43.058Z,99.99
2016-10-13T12:02:43.048Z,99.99
2016-10-13T12:03:43.045Z,99.99
2016-10-13T12:04:43.033Z,99.99
2016-10-13T12:05:43.023Z,99.99
2016-10-13T12:06:43.019Z,99.99
2016-10-13T12:07:43.010Z,99.99
2016-10-13T12:08:42.995Z,99.99
2016-10-13T12:09:42.993Z,99.99
2016-10-13T12:10:42.977Z,99.99
2016-10-13T12:11:42.976Z,99.99
2016-10-13T12:12:42.970Z,99.99
2016-10-13T12:13:42.948Z,99.99
2016-10-13T12:14:42.947Z,99.99
2016-10-13T12:15:42.936Z,99.99
2016-10-13T12:16:42.928Z,99.99
2016-10-13T12:17:42.926Z,99.99
2016-10-13T12:18:42.906Z,99.99
2016-10-13T12:19:42.899Z,99.99
2016-10-13T12:20:42.883Z,99.99
2016-10-13T12:21:42.875Z,99.99
2016-10-13T12:22:42.877Z,99.99
2016-10-13T12:23:42.855Z,99.99
2016-10-13T12:24:42.849Z,99.99
2016-10-13T12:25:42.839Z,99.99
2016-10-13T12:26:42.837Z,99.99
2016-10-13T12:27:42.821Z,99.99
2016-10-13T12:28:42.815Z,99.99
2016-10-13T12:29:42.801Z,99.99
2016-10-13T12:30:42.789Z,99.99
2016-10-13T12:31:42.784Z,99.99
2016-10-13T12:32:42.770Z,99.99
2016-10-13T12:33:42.761Z,99.99
2016-10-13T12:34:42.757Z,99.99
2016-10-13T12:35:42.749Z,99.99
2016-10-13T12:36:42.733Z,99.99
2016-10-13T12:37:42.731Z,99.99
2016-10-13T12:38:42.722Z,99.99
2016-10-13T12:39:42.706Z,99.99
2016-10-13T12:40:42.696Z,99.99
2016-10-13T12:41:42.686Z,99.99
2016-10-13T12:42:42.674Z,99.99
2016-10-13T12:43:42.671Z,99.99
2016-10-13T12:44:42.661Z,99.99
2016-10-13T12:45:42.647Z,99.99
2016-10-13T12:46:42.636Z,99.99
2016-10-13T12:47:42.626Z,99.26
2016-10-13T12:48:42.614Z,99.99
2016-10-13T12:49:42.618Z,99.99
2016-10-13T12:50:42.605Z,99.99
2016-10-13T12:51:42.585Z,99.69
2016-10-13T12:52:42.592Z,99.21
2016-10-13T12:53:42.573Z,98.93
2016-10-13T12:54:42.556Z,96.17
2016-10-13T12:55:42.549Z,94.56
2016-10-13T12:56:42.549Z,91.42
2016-10-13T12:57:42.524Z,92.75
2016-10-13T12:58:42.643Z,91.99
2016-10-13T12:59:42.506Z,90.56
2016-10-13T13:00:42.495Z,89.61
2016-10-13T13:01:42.486Z,89.42
2016-10-13T13:02:42.478Z,88.76
2016-10-13T13:03:42.464Z,88.19
2016-10-13T13:04:42.453Z,89.23
2016-10-13T13:05:42.445Z,90.85
2016-10-13T13:06:42.460Z,87.9
2016-10-13T13:07:42.430Z,85.34
2016-10-13T13:08:42.414Z,84.58
2016-10-13T13:09:42.408Z,86.1
2016-10-13T13:10:42.399Z,90.19
2016-10-13T13:11:42.389Z,92.66
2016-10-13T13:12:42.372Z,91.89
2016-10-13T13:13:42.363Z,90
2016-10-13T13:14:42.351Z,88.57
2016-10-13T13:15:42.352Z,88.57
2016-10-13T13:16:42.336Z,86.76
2016-10-13T13:17:42.328Z,89.04
2016-10-13T13:18:42.312Z,90.56
2016-10-13T13:19:42.303Z,89.23
2016-10-13T13:20:42.298Z,90.37
2016-10-13T13:21:42.281Z,91.71
2016-10-13T13:22:42.270Z,92.66
2016-10-13T13:23:42.259Z,92.66
2016-10-13T13:24:42.247Z,89.23
2016-10-13T13:25:42.251Z,92.27
2016-10-13T13:26:42.231Z,94.56
2016-10-13T13:27:42.422Z,92.94
2016-10-13T13:28:42.207Z,91.99
2016-10-13T13:29:42.199Z,91.23
2016-10-13T13:30:42.187Z,90.28
2016-10-13T13:31:42.174Z,90.09
2016-10-13T13:32:42.163Z,91.89
2016-10-13T13:33:42.153Z,90.56
2016-10-13T13:34:42.144Z,88.57
2016-10-13T13:35:42.148Z,86.19
2016-10-13T13:36:42.125Z,88.19
2016-10-13T13:37:42.122Z,91.61
2016-10-13T13:38:42.101Z,92.66
2016-10-13T13:39:42.092Z,91.33
2016-10-13T13:40:42.088Z,90.09
2016-10-13T13:41:42.080Z,90.75
2016-10-13T13:42:42.061Z,92.94
2016-10-13T13:43:42.056Z,91.23